createdAt,value
2022-10-10T00:01:29.106Z,51.12
2022-10-10T00:03:55.932Z,51.09
2022-10-10T00:06:22.933Z,51.24
2022-10-10T00:08:49.581Z,51.11
2022-10-10T00:11:19.165Z,51.09
2022-10-10T00:13:45.789Z,51.04
2022-10-10T00:16:12.820Z,51.11
2022-10-10T00:18:39.890Z,51.09
2022-10-10T00:21:07.013Z,51.06
2022-10-10T00:23:34.064Z,51.04
2022-10-10T00:26:03.468Z,51.16
2022-10-10T00:28:32.957Z,51.10
2022-10-10T00:30:59.741Z,51.20
2022-10-10T00:33:26.209Z,51.11
2022-10-10T00:35:52.741Z,51.24
2022-10-10T00:38:19.218Z,51.11
2022-10-10T00:40:56.488Z,51.12
2022-10-10T00:43:24.755Z,51.00
2022-10-10T00:45:51.620Z,50.92
2022-10-10T00:48:21.037Z,50.96
2022-10-10T00:51:13.594Z,51.05
2022-10-10T00:53:46.213Z,51.11
2022-10-10T00:56:14.623Z,51.05
2022-10-10T00:58:44.792Z,50.99
2022-10-10T01:01:11.480Z,51.08
2022-10-10T01:03:38.189Z,50.93
2022-10-10T01:06:05.698Z,50.97
2022-10-10T01:08:33.038Z,51.06
2022-10-10T01:11:12.558Z,51.06
2022-10-10T01:13:50.424Z,51.07
2022-10-10T01:16:29.039Z,50.93
2022-10-10T01:19:19.652Z,51.41
2022-10-10T01:21:52.329Z,50.84
2022-10-10T01:24:40.329Z,50.97
2022-10-10T01:27:13.306Z,50.89
2022-10-10T01:29:47.537Z,50.91
2022-10-10T01:32:19.697Z,50.88
2022-10-10T01:35:08.954Z,50.91
2022-10-10T01:37:52.578Z,50.95
2022-10-10T01:40:29.910Z,50.88
2022-10-10T01:43:01.201Z,50.75
2022-10-10T01:45:28.357Z,50.94
2022-10-10T01:47:57.915Z,50.86
2022-10-10T01:50:26.568Z,50.88
2022-10-10T01:53:09.860Z,50.77
2022-10-10T01:55:48.348Z,50.86
2022-10-10T01:58:47.692Z,50.79
2022-10-10T02:01:18.570Z,50.68
2022-10-10T02:03:50.398Z,50.77
2022-10-10T02:06:23.039Z,50.74
2022-10-10T02:08:53.320Z,50.90
2022-10-10T02:11:20.378Z,50.87
2022-10-10T02:13:55.868Z,50.83
2022-10-10T02:16:38.052Z,50.84
2022-10-10T02:19:09.019Z,50.70
2022-10-10T02:21:35.493Z,50.83
2022-10-10T02:24:06.919Z,50.69
2022-10-10T02:26:33.897Z,50.83
2022-10-10T02:29:10.301Z,50.75
2022-10-10T02:31:45.910Z,50.77
2022-10-10T02:34:22.940Z,50.77
2022-10-10T02:36:58.598Z,50.74
2022-10-10T02:39:30.792Z,50.58
2022-10-10T02:41:57.296Z,50.84
2022-10-10T02:44:25.334Z,50.69
2022-10-10T02:46:52.012Z,50.92
2022-10-10T02:49:27.672Z,50.74
2022-10-10T02:51:54.187Z,50.66
2022-10-10T02:54:20.682Z,50.59
2022-10-10T02:56:47.265Z,50.67
2022-10-10T02:59:13.737Z,50.67
2022-10-10T03:01:40.745Z,50.63
2022-10-10T03:04:07.195Z,50.60
2022-10-10T03:06:33.731Z,50.83
2022-10-10T03:09:00.444Z,50.64
2022-10-10T03:11:26.972Z,50.35
2022-10-10T03:13:53.429Z,50.60
2022-10-10T03:16:19.970Z,50.79
2022-10-10T03:18:46.474Z,50.59
2022-10-10T03:21:12.944Z,50.59
2022-10-10T03:23:39.405Z,50.63
2022-10-10T03:26:06.104Z,50.62
2022-10-10T03:28:32.831Z,50.73
2022-10-10T03:30:59.358Z,50.80
2022-10-10T03:33:25.850Z,50.64
2022-10-10T03:35:52.309Z,50.68
2022-10-10T03:38:18.756Z,50.48
2022-10-10T03:40:46.079Z,50.55
2022-10-10T03:43:14.302Z,50.45
2022-10-10T03:45:50.152Z,50.49
2022-10-10T03:48:16.750Z,50.50
2022-10-10T03:50:43.232Z,50.42
2022-10-10T03:53:10.314Z,50.60
2022-10-10T03:55:40.159Z,50.58
2022-10-10T03:58:06.725Z,50.56
2022-10-10T04:00:33.261Z,50.44
2022-10-10T04:03:00.159Z,50.48
2022-10-10T04:05:26.646Z,50.58
2022-10-10T04:07:53.085Z,50.49
2022-10-10T04:10:19.542Z,50.48
2022-10-10T04:12:46.044Z,50.43
2022-10-10T04:15:12.556Z,50.33
2022-10-10T04:17:39.036Z,50.28
2022-10-10T04:20:05.783Z,50.36
2022-10-10T04:22:32.341Z,50.30
2022-10-10T04:24:58.858Z,50.28
2022-10-10T04:27:25.372Z,50.35
2022-10-10T04:29:52.102Z,50.33
2022-10-10T04:32:18.553Z,50.32
2022-10-10T04:34:45.008Z,50.28
2022-10-10T04:37:11.496Z,50.31
2022-10-10T04:39:37.952Z,50.17
2022-10-10T04:42:04.679Z,50.08
2022-10-10T04:44:31.124Z,50.46
2022-10-10T04:46:57.578Z,50.22
2022-10-10T04:49:24.136Z,50.37
2022-10-10T04:51:50.604Z,50.26
2022-10-10T04:54:17.116Z,50.46
2022-10-10T04:56:43.615Z,50.42
2022-10-10T04:59:10.507Z,50.24
2022-10-10T05:01:37.023Z,50.22
2022-10-10T05:04:04.340Z,50.48
2022-10-10T05:06:30.830Z,50.31
2022-10-10T05:08:57.309Z,50.28
2022-10-10T05:11:23.821Z,50.26
2022-10-10T05:13:50.743Z,50.53
2022-10-10T05:16:17.314Z,50.29
2022-10-10T05:18:43.777Z,50.47
2022-10-10T05:21:11.893Z,50.14
2022-10-10T05:23:38.781Z,50.06
2022-10-10T05:26:05.256Z,50.12
2022-10-10T05:28:32.024Z,50.08
2022-10-10T05:30:58.540Z,50.06
2022-10-10T05:33:25.070Z,50.04
2022-10-10T05:35:51.519Z,49.98
2022-10-10T05:38:18.073Z,50.25
2022-10-10T05:40:44.576Z,50.07
2022-10-10T05:43:11.113Z,50.28
2022-10-10T05:45:37.596Z,49.98
2022-10-10T05:48:04.180Z,50.22
2022-10-10T05:50:38.583Z,50.19
2022-10-10T05:53:06.812Z,50.25
2022-10-10T05:55:33.882Z,50.04
2022-10-10T05:58:00.414Z,50.08
2022-10-10T06:00:26.900Z,50.02
2022-10-10T06:02:53.917Z,50.02
2022-10-10T06:05:20.683Z,50.04
2022-10-10T06:08:04.698Z,50.05
2022-10-10T06:10:38.977Z,50.02
2022-10-10T06:13:05.561Z,50.19
2022-10-10T06:15:32.082Z,50.03
2022-10-10T06:17:58.602Z,50.02
2022-10-10T06:20:25.110Z,50.13
2022-10-10T06:22:51.846Z,50.13
2022-10-10T06:25:38.308Z,50.08
2022-10-10T06:28:05.862Z,50.30
2022-10-10T06:30:34.732Z,50.10
2022-10-10T06:33:01.542Z,50.03
2022-10-10T06:35:28.181Z,49.93
2022-10-10T06:37:54.621Z,50.07
2022-10-10T06:40:21.197Z,50.10
2022-10-10T06:42:47.641Z,49.95
2022-10-10T06:45:14.121Z,49.95
2022-10-10T06:47:41.990Z,50.02
2022-10-10T06:50:08.873Z,49.94
2022-10-10T06:52:35.341Z,49.98
2022-10-10T06:55:01.811Z,49.88
2022-10-10T06:57:28.364Z,50.06
2022-10-10T06:59:54.932Z,49.90
2022-10-10T07:02:23.160Z,49.94
2022-10-10T07:04:49.667Z,49.88
2022-10-10T07:07:16.179Z,50.06
2022-10-10T07:09:42.669Z,50.03
2022-10-10T07:12:09.241Z,50.02
2022-10-10T07:14:35.748Z,49.75
2022-10-10T07:17:03.146Z,50.01
2022-10-10T07:19:29.480Z,49.97
2022-10-10T07:21:56.002Z,49.84
2022-10-10T07:24:22.598Z,49.83
2022-10-10T07:26:49.933Z,49.83
2022-10-10T07:29:16.373Z,49.84
2022-10-10T07:31:42.837Z,49.72
2022-10-10T07:34:09.281Z,49.75
2022-10-10T07:36:35.807Z,49.74
2022-10-10T07:39:02.289Z,49.72
2022-10-10T07:41:28.817Z,49.68
2022-10-10T07:43:56.569Z,49.55
2022-10-10T07:46:23.236Z,49.67
2022-10-10T07:48:49.786Z,49.59
2022-10-10T07:51:16.818Z,49.65
2022-10-10T07:53:44.285Z,49.78
2022-10-10T07:56:11.828Z,49.59
2022-10-10T07:58:38.824Z,49.75
2022-10-10T08:01:08.456Z,49.89
2022-10-10T08:03:35.324Z,49.69
2022-10-10T08:06:07.247Z,49.56
2022-10-10T08:08:40.797Z,49.60
2022-10-10T08:11:11.595Z,49.69
2022-10-10T08:13:39.915Z,49.54
2022-10-10T08:16:06.454Z,49.39
2022-10-10T08:18:32.897Z,49.37
2022-10-10T08:21:01.436Z,49.77
2022-10-10T08:23:28.320Z,49.60
2022-10-10T08:25:57.910Z,49.40
2022-10-10T08:28:24.388Z,49.44
2022-10-10T08:30:50.890Z,49.24
2022-10-10T08:33:17.397Z,49.51
2022-10-10T08:35:43.951Z,49.37
2022-10-10T08:38:10.795Z,49.32
2022-10-10T08:40:49.239Z,49.43
2022-10-10T08:43:23.336Z,49.47
2022-10-10T08:45:52.149Z,49.28
2022-10-10T08:48:25.801Z,49.37
2022-10-10T08:50:58.294Z,49.28
2022-10-10T08:53:32.206Z,49.41
2022-10-10T08:55:59.893Z,49.49
2022-10-10T08:58:42.237Z,49.24
2022-10-10T09:01:25.105Z,49.27
2022-10-10T09:04:05.730Z,49.28
2022-10-10T09:06:44.364Z,49.17
2022-10-10T09:09:21.961Z,49.31
2022-10-10T09:12:19.148Z,49.28
2022-10-10T09:15:02.220Z,49.19
2022-10-10T09:17:38.092Z,49.32
2022-10-10T09:20:13.752Z,49.29
2022-10-10T09:22:53.463Z,49.33
2022-10-10T09:25:30.481Z,49.25
2022-10-10T09:28:19.953Z,49.30
2022-10-10T09:30:51.226Z,49.49
2022-10-10T09:33:50.226Z,49.19
2022-10-10T09:36:21.516Z,49.27
2022-10-10T09:38:52.705Z,49.28
2022-10-10T09:41:47.391Z,49.19
2022-10-10T09:44:15.160Z,49.27
2022-10-10T09:46:42.029Z,49.38
2022-10-10T09:49:15.165Z,49.28
2022-10-10T09:51:41.675Z,49.17
2022-10-10T09:54:08.247Z,49.24
2022-10-10T09:56:48.785Z,49.13
2022-10-10T09:59:41.431Z,49.22
2022-10-10T10:02:21.069Z,49.23
2022-10-10T10:04:49.934Z,49.13
2022-10-10T10:07:25.652Z,49.75
2022-10-10T10:09:56.020Z,49.20
2022-10-10T10:12:29.571Z,49.71
2022-10-10T10:15:06.449Z,49.25
2022-10-10T10:17:33.185Z,49.18
2022-10-10T10:19:59.767Z,49.28
2022-10-10T10:22:38.582Z,49.05
2022-10-10T10:25:35.354Z,49.36
2022-10-10T10:28:10.926Z,49.32
2022-10-10T10:30:39.239Z,49.23
2022-10-10T10:33:24.753Z,49.21
2022-10-10T10:36:09.734Z,49.36
2022-10-10T10:39:21.224Z,49.32
2022-10-10T10:41:56.257Z,49.24
2022-10-10T10:44:41.312Z,49.44
2022-10-10T10:47:49.290Z,49.32
2022-10-10T10:50:26.982Z,49.36
2022-10-10T10:52:53.384Z,49.53
2022-10-10T10:55:27.167Z,49.34
2022-10-10T10:59:05.441Z,49.46
2022-10-10T11:01:55.074Z,49.41
2022-10-10T11:05:17.334Z,49.53
2022-10-10T11:07:26.417Z,49.43
2022-10-10T11:10:15.673Z,49.56
2022-10-10T11:13:02.658Z,49.48
2022-10-10T11:16:05.314Z,49.58
2022-10-10T11:18:53.673Z,49.58
2022-10-10T11:21:33.368Z,49.56
2022-10-10T11:24:27.793Z,49.60
2022-10-10T11:26:57.538Z,49.61
2022-10-10T11:29:34.365Z,49.50
2022-10-10T11:32:10.995Z,49.67
2022-10-10T11:35:16.582Z,49.61
2022-10-10T11:37:48.245Z,49.49
2022-10-10T11:40:39.565Z,49.73
2022-10-10T11:43:12.900Z,49.62
2022-10-10T11:45:59.481Z,49.82
2022-10-10T11:48:43.274Z,49.69
2022-10-10T11:51:19.797Z,49.74
2022-10-10T11:53:51.881Z,50.11
2022-10-10T11:56:45.385Z,51.08
2022-10-10T11:59:29.771Z,52.35
2022-10-10T12:02:00.334Z,54.28
2022-10-10T12:04:35.625Z,53.84
2022-10-10T12:07:14.284Z,54.15
2022-10-10T12:09:45.474Z,55.76
2022-10-10T12:12:18.765Z,55.09
2022-10-10T12:14:54.060Z,55.35
2022-10-10T12:17:25.543Z,55.42
2022-10-10T12:19:52.330Z,56.23
2022-10-10T12:22:29.812Z,56.08
2022-10-10T12:25:24.368Z,55.95
2022-10-10T12:28:05.551Z,55.91
2022-10-10T12:30:32.337Z,55.94
2022-10-10T12:32:58.897Z,55.87
2022-10-10T12:35:49.691Z,56.16
2022-10-10T12:38:22.017Z,56.50
2022-10-10T12:40:57.634Z,56.21
2022-10-10T12:43:45.935Z,56.00
2022-10-10T12:46:23.383Z,55.56
2022-10-10T12:49:32.817Z,56.48
2022-10-10T12:52:20.063Z,55.78
2022-10-10T12:54:47.732Z,55.62
2022-10-10T12:57:26.346Z,55.68
2022-10-10T12:59:53.054Z,55.54
2022-10-10T13:02:24.449Z,56.83
2022-10-10T13:04:55.846Z,56.14
2022-10-10T13:07:24.186Z,55.56
2022-10-10T13:09:54.296Z,56.39
2022-10-10T13:12:28.845Z,55.62
2022-10-10T13:14:56.321Z,51.68
2022-10-10T13:17:23.573Z,53.20
2022-10-10T13:19:51.374Z,53.87
2022-10-10T13:22:18.415Z,54.09
2022-10-10T13:24:46.468Z,55.50
2022-10-10T13:27:24.229Z,55.73
2022-10-10T13:29:52.957Z,55.55
2022-10-10T13:32:25.568Z,56.12
2022-10-10T13:35:04.049Z,55.46
2022-10-10T13:37:31.145Z,55.83
2022-10-10T13:39:58.148Z,55.74
2022-10-10T13:42:35.040Z,56.00
2022-10-10T13:45:26.562Z,55.78
2022-10-10T13:48:02.507Z,55.95
2022-10-10T13:50:44.258Z,56.53
2022-10-10T13:53:26.457Z,55.71
2022-10-10T13:55:59.283Z,54.43
2022-10-10T13:58:27.912Z,55.79
2022-10-10T14:01:00.925Z,57.68
2022-10-10T14:03:29.253Z,58.09
2022-10-10T14:05:56.112Z,58.58
2022-10-10T14:08:32.644Z,58.71
2022-10-10T14:11:08.776Z,59.11
2022-10-10T14:13:38.668Z,59.72
2022-10-10T14:16:18.239Z,59.32
2022-10-10T14:18:44.914Z,58.50
2022-10-10T14:21:11.993Z,58.03
2022-10-10T14:23:39.236Z,57.90
2022-10-10T14:26:11.328Z,57.54
2022-10-10T14:28:39.721Z,57.22
2022-10-10T14:31:06.934Z,57.03
2022-10-10T14:33:33.404Z,56.73
2022-10-10T14:36:00.202Z,56.55
2022-10-10T14:38:27.251Z,56.41
2022-10-10T14:40:54.947Z,56.28
2022-10-10T14:43:22.644Z,56.25
2022-10-10T14:45:50.911Z,55.84
2022-10-10T14:48:17.941Z,55.54
2022-10-10T14:50:47.148Z,54.55
2022-10-10T14:53:14.636Z,56.38
2022-10-10T14:55:43.489Z,57.63
2022-10-10T14:58:16.214Z,57.75
2022-10-10T15:00:43.044Z,58.61
2022-10-10T15:03:09.717Z,58.84
2022-10-10T15:05:36.455Z,58.85
2022-10-10T15:08:03.542Z,59.49
2022-10-10T15:10:34.262Z,59.28
2022-10-10T15:13:02.462Z,59.47
2022-10-10T15:15:29.102Z,59.51
2022-10-10T15:17:58.262Z,59.51
2022-10-10T15:20:30.917Z,59.82
2022-10-10T15:23:03.148Z,60.02
2022-10-10T15:25:33.286Z,59.92
2022-10-10T15:28:00.512Z,59.77
2022-10-10T15:30:27.061Z,59.04
2022-10-10T15:32:53.520Z,58.72
2022-10-10T15:35:22.701Z,58.28
2022-10-10T15:37:49.270Z,58.35
2022-10-10T15:40:19.812Z,58.06
2022-10-10T15:42:47.655Z,57.55
2022-10-10T15:45:19.355Z,57.44
2022-10-10T15:47:58.648Z,57.21
2022-10-10T15:50:27.075Z,56.97
2022-10-10T15:52:53.633Z,56.77
2022-10-10T15:55:20.097Z,56.79
2022-10-10T15:57:46.557Z,56.56
2022-10-10T16:00:14.025Z,56.53
2022-10-10T16:02:40.469Z,56.35
2022-10-10T16:05:08.487Z,56.03
2022-10-10T16:07:42.217Z,55.93
2022-10-10T16:10:13.408Z,55.98
2022-10-10T16:12:39.856Z,56.93
2022-10-10T16:15:07.422Z,57.67
2022-10-10T16:17:34.230Z,58.31
2022-10-10T16:20:00.696Z,58.75
2022-10-10T16:22:27.144Z,59.61
2022-10-10T16:25:17.324Z,59.75
2022-10-10T16:27:40.125Z,59.81
2022-10-10T16:30:07.633Z,60.05
2022-10-10T16:32:39.276Z,60.03
2022-10-10T16:35:08.542Z,60.16
2022-10-10T16:37:35.035Z,59.89
2022-10-10T16:40:01.513Z,60.08
2022-10-10T16:42:28.053Z,59.17
2022-10-10T16:44:54.498Z,59.14
2022-10-10T16:47:21.018Z,59.09
2022-10-10T16:49:47.461Z,59.03
2022-10-10T16:52:13.906Z,58.96
2022-10-10T16:54:40.358Z,58.86
2022-10-10T16:57:06.821Z,58.69
2022-10-10T16:59:34.745Z,58.26
2022-10-10T17:02:01.392Z,58.00
2022-10-10T17:04:27.843Z,58.12
2022-10-10T17:06:54.368Z,57.96
2022-10-10T17:09:22.649Z,57.47
2022-10-10T17:11:51.551Z,57.70
2022-10-10T17:14:18.465Z,57.55
2022-10-10T17:19:32.113Z,57.41
2022-10-10T17:21:59.505Z,57.39
2022-10-10T17:24:27.677Z,57.14
2022-10-10T17:26:54.125Z,57.09
2022-10-10T17:29:20.598Z,56.93
2022-10-10T17:31:47.156Z,56.98
2022-10-10T17:34:13.609Z,56.94
2022-10-10T17:36:40.056Z,56.85
2022-10-10T17:39:07.680Z,56.67
2022-10-10T17:41:34.431Z,56.66
2022-10-10T17:44:01.085Z,56.84
2022-10-10T17:46:34.765Z,56.47
2022-10-10T17:49:04.175Z,56.40
2022-10-10T17:51:30.657Z,56.32
2022-10-10T17:54:00.125Z,56.45
2022-10-10T17:56:26.973Z,56.34
2022-10-10T17:58:53.425Z,56.18
2022-10-10T18:01:20.729Z,56.41
2022-10-10T18:03:48.126Z,56.35
2022-10-10T18:06:17.489Z,56.29
2022-10-10T18:08:45.917Z,56.12
2022-10-10T18:11:14.275Z,56.11
2022-10-10T18:13:40.925Z,56.08
2022-10-10T18:16:13.336Z,55.98
2022-10-10T18:18:41.409Z,55.98
2022-10-10T18:21:09.597Z,55.80
2022-10-10T18:23:36.812Z,55.68
2022-10-10T18:26:08.802Z,55.57
2022-10-10T18:28:38.983Z,55.19
2022-10-10T18:31:13.679Z,55.41
2022-10-10T18:33:41.130Z,55.11
2022-10-10T18:36:08.989Z,55.29
2022-10-10T18:38:35.644Z,55.09
2022-10-10T18:41:11.564Z,55.24
2022-10-10T18:43:39.554Z,55.05
2022-10-10T18:46:08.213Z,54.67
2022-10-10T18:48:36.374Z,54.82
2022-10-10T18:51:08.948Z,54.69
2022-10-10T18:53:41.493Z,54.69
2022-10-10T18:56:09.269Z,54.71
2022-10-10T18:58:36.557Z,54.52
2022-10-10T19:01:09.790Z,54.72
2022-10-10T19:03:38.210Z,54.72
2022-10-10T19:06:07.114Z,54.52
2022-10-10T19:08:34.432Z,54.36
2022-10-10T19:11:01.896Z,54.61
2022-10-10T19:13:29.245Z,54.50
2022-10-10T19:15:55.725Z,54.32
2022-10-10T19:18:22.844Z,53.90
2022-10-10T19:20:49.485Z,54.34
2022-10-10T19:23:16.027Z,54.17
2022-10-10T19:25:44.200Z,54.19
2022-10-10T19:28:10.724Z,54.24
2022-10-10T19:30:42.590Z,53.91
2022-10-10T19:33:10.036Z,54.14
2022-10-10T19:35:37.380Z,54.33
2022-10-10T19:38:05.555Z,54.29
2022-10-10T19:40:32.425Z,54.18
2022-10-10T19:42:59.102Z,54.34
2022-10-10T19:45:25.929Z,54.16
2022-10-10T19:47:52.517Z,54.02
2022-10-10T19:50:19.354Z,54.11
2022-10-10T19:52:45.881Z,53.99
2022-10-10T19:55:12.418Z,53.97
2022-10-10T19:57:38.900Z,53.97
2022-10-10T20:00:07.239Z,54.01
2022-10-10T20:02:33.731Z,53.98
2022-10-10T20:05:00.204Z,53.84
2022-10-10T20:07:26.650Z,53.60
2022-10-10T20:09:54.299Z,53.75
2022-10-10T20:12:20.777Z,53.73
2022-10-10T20:14:47.245Z,53.68
2022-10-10T20:17:13.905Z,53.46
2022-10-10T20:19:40.463Z,53.55
2022-10-10T20:22:07.255Z,53.67
2022-10-10T20:24:34.049Z,53.50
2022-10-10T20:27:00.593Z,53.56
2022-10-10T20:29:27.209Z,53.55
2022-10-10T20:31:53.888Z,53.61
2022-10-10T20:34:20.350Z,53.47
2022-10-10T20:36:46.900Z,53.52
2022-10-10T20:39:14.000Z,53.14
2022-10-10T20:41:42.172Z,53.29
2022-10-10T20:44:12.194Z,53.16
2022-10-10T20:46:40.700Z,53.28
2022-10-10T20:49:12.578Z,53.32
2022-10-10T20:51:39.102Z,53.13
2022-10-10T20:54:06.525Z,53.15
2022-10-10T20:56:33.809Z,53.22
2022-10-10T20:59:00.756Z,53.78
2022-10-10T21:01:29.443Z,54.22
2022-10-10T21:03:56.170Z,54.33
2022-10-10T21:06:31.878Z,54.47
2022-10-10T21:09:01.481Z,54.35
2022-10-10T21:11:29.117Z,54.23
2022-10-10T21:13:58.105Z,54.18
2022-10-10T21:16:30.185Z,53.94
2022-10-10T21:18:59.707Z,53.96
2022-10-10T21:21:29.488Z,53.72
2022-10-10T21:23:56.849Z,53.64
2022-10-10T21:26:25.090Z,53.60
2022-10-10T21:28:52.615Z,53.52
2022-10-10T21:31:21.984Z,53.45
2022-10-10T21:33:48.722Z,53.26
2022-10-10T21:36:17.097Z,53.27
2022-10-10T21:38:43.948Z,53.40
2022-10-10T21:41:13.570Z,53.22
2022-10-10T21:43:40.951Z,53.15
2022-10-10T21:46:09.080Z,53.33
2022-10-10T21:48:35.991Z,53.07
2022-10-10T21:51:02.597Z,52.99
2022-10-10T21:53:29.149Z,52.99
2022-10-10T21:55:56.098Z,53.13
2022-10-10T21:58:24.449Z,53.02
2022-10-10T22:00:51.563Z,52.93
2022-10-10T22:03:18.085Z,53.04
2022-10-10T22:05:44.850Z,52.91
2022-10-10T22:08:11.589Z,52.90
2022-10-10T22:10:41.088Z,52.84
2022-10-10T22:13:07.629Z,52.60
2022-10-10T22:15:34.212Z,52.67
2022-10-10T22:18:00.676Z,52.71
2022-10-10T22:20:27.185Z,52.87
2022-10-10T22:22:53.649Z,52.80
2022-10-10T22:25:20.273Z,52.60
2022-10-10T22:27:46.731Z,52.83
2022-10-10T22:30:13.847Z,52.35
2022-10-10T22:32:40.413Z,52.48
2022-10-10T22:35:07.276Z,52.51
2022-10-10T22:37:33.740Z,52.60
2022-10-10T22:40:00.217Z,52.57
2022-10-10T22:42:26.701Z,52.58
2022-10-10T22:44:53.160Z,52.61
2022-10-10T22:47:19.709Z,52.46
2022-10-10T22:49:46.159Z,52.54
2022-10-10T22:52:12.725Z,52.58
2022-10-10T22:54:39.171Z,52.63
2022-10-10T22:57:05.638Z,52.46
2022-10-10T22:59:32.121Z,52.47
2022-10-10T23:01:58.712Z,52.49
2022-10-10T23:04:25.169Z,52.35
2022-10-10T23:06:51.645Z,52.33
2022-10-10T23:09:18.190Z,52.43
2022-10-10T23:11:44.640Z,52.47
2022-10-10T23:14:11.139Z,52.41
2022-10-10T23:16:40.722Z,52.35
2022-10-10T23:19:07.714Z,52.34
2022-10-10T23:21:34.174Z,52.41
2022-10-10T23:24:00.669Z,52.23
2022-10-10T23:26:27.330Z,52.40
2022-10-10T23:28:53.859Z,52.30
2022-10-10T23:31:20.407Z,52.27
2022-10-10T23:33:46.922Z,52.45
2022-10-10T23:36:15.300Z,52.35
2022-10-10T23:38:42.732Z,52.21
2022-10-10T23:41:13.191Z,52.28
2022-10-10T23:43:39.927Z,52.34
2022-10-10T23:46:07.271Z,52.10
2022-10-10T23:48:34.319Z,52.13
2022-10-10T23:51:01.030Z,52.09
2022-10-10T23:53:27.557Z,52.13
2022-10-10T23:55:54.028Z,52.09
2022-10-10T23:58:20.656Z,51.93
